sensor_id;sensor_type;location;lat;lon;timestamp;temperature;humidity
72326;DHT22;60278;47.980;18.780;2022-11-12T00:01:14;5.00;99.99
72326;DHT22;60278;47.980;18.780;2022-11-12T00:05:04;4.79;99.99
72326;DHT22;60278;47.980;18.780;2022-11-12T00:08:53;4.78;99.99
72326;DHT22;60278;47.980;18.780;2022-11-12T00:12:43;5.13;99.99
72326;DHT22;60278;47.980;18.780;2022-11-12T00:16:33;4.93;99.99
72326;DHT22;60278;47.980;18.780;2022-11-12T00:20:22;4.79;99.99
72326;DHT22;60278;47.980;18.780;2022-11-12T00:24:11;4.79;99.99
72326;DHT22;60278;47.980;18.780;2022-11-12T00:28:07;4.69;99.99
72326;DHT22;60278;47.980;18.780;2022-11-12T00:31:56;4.62;99.99
72326;DHT22;60278;47.980;18.780;2022-11-12T00:35:45;4.59;99.99
72326;DHT22;60278;47.980;18.780;2022-11-12T00:39:36;4.69;99.99
72326;DHT22;60278;47.980;18.780;2022-11-12T00:43:25;4.69;99.99
72326;DHT22;60278;47.980;18.780;2022-11-12T00:47:15;4.58;99.99
72326;DHT22;60278;47.980;18.780;2022-11-12T00:51:04;4.62;99.99
72326;DHT22;60278;47.980;18.780;2022-11-12T00:54:54;4.54;99.99
72326;DHT22;60278;47.980;18.780;2022-11-12T00:58:44;4.59;99.99
72326;DHT22;60278;47.980;18.780;2022-11-12T01:02:33;4.54;99.99
72326;DHT22;60278;47.980;18.780;2022-11-12T01:06:23;4.59;99.99
72326;DHT22;60278;47.980;18.780;2022-11-12T01:10:13;4.72;99.99
72326;DHT22;60278;47.980;18.780;2022-11-12T01:14:05;4.58;99.99
72326;DHT22;60278;47.980;18.780;2022-11-12T01:17:55;4.62;99.99
72326;DHT22;60278;47.980;18.780;2022-11-12T01:21:44;3.97;99.99
72326;DHT22;60278;47.980;18.780;2022-11-12T01:25:36;3.91;99.99
72326;DHT22;60278;47.980;18.780;2022-11-12T01:29:26;3.97;99.99
72326;DHT22;60278;47.980;18.780;2022-11-12T01:33:15;3.96;99.99
72326;DHT22;60278;47.980;18.780;2022-11-12T01:37:04;3.82;99.99
72326;DHT22;60278;47.980;18.780;2022-11-12T01:40:53;3.70;99.99
72326;DHT22;60278;47.980;18.780;2022-11-12T01:44:44;3.70;99.99
72326;DHT22;60278;47.980;18.780;2022-11-12T01:48:38;3.82;99.99
72326;DHT22;60278;47.980;18.780;2022-11-12T01:52:37;3.86;99.99
72326;DHT22;60278;47.980;18.780;2022-11-12T01:56:29;3.83;99.99
72326;DHT22;60278;47.980;18.780;2022-11-12T02:00:19;3.89;99.99
72326;DHT22;60278;47.980;18.780;2022-11-12T02:04:10;4.30;99.99
72326;DHT22;60278;47.980;18.780;2022-11-12T02:08:00;4.00;99.99
72326;DHT22;60278;47.980;18.780;2022-11-12T02:11:50;3.91;99.99
72326;DHT22;60278;47.980;18.780;2022-11-12T02:15:40;3.72;99.99
72326;DHT22;60278;47.980;18.780;2022-11-12T02:19:30;3.80;99.99
72326;DHT22;60278;47.980;18.780;2022-11-12T02:23:20;3.89;99.99
72326;DHT22;60278;47.980;18.780;2022-11-12T02:27:10;3.86;99.99
72326;DHT22;60278;47.980;18.780;2022-11-12T02:31:00;3.93;99.99
72326;DHT22;60278;47.980;18.780;2022-11-12T02:34:49;4.03;99.99
72326;DHT22;60278;47.980;18.780;2022-11-12T02:38:39;3.89;99.99
72326;DHT22;60278;47.980;18.780;2022-11-12T02:42:28;3.70;99.99
72326;DHT22;60278;47.980;18.780;2022-11-12T02:46:17;3.69;99.99
72326;DHT22;60278;47.980;18.780;2022-11-12T02:50:08;3.62;99.99
72326;DHT22;60278;47.980;18.780;2022-11-12T02:53:57;3.43;99.99
72326;DHT22;60278;47.980;18.780;2022-11-12T02:57:46;3.39;99.99
72326;DHT22;60278;47.980;18.780;2022-11-12T03:01:36;3.54;99.99
72326;DHT22;60278;47.980;18.780;2022-11-12T03:05:27;3.24;99.99
72326;DHT22;60278;47.980;18.780;2022-11-12T03:09:17;3.36;99.99
72326;DHT22;60278;47.980;18.780;2022-11-12T03:13:06;3.22;99.99
72326;DHT22;60278;47.980;18.780;2022-11-12T03:16:56;3.35;99.99
72326;DHT22;60278;47.980;18.780;2022-11-12T03:20:45;3.24;99.99
72326;DHT22;60278;47.980;18.780;2022-11-12T03:24:35;3.21;99.99
72326;DHT22;60278;47.980;18.780;2022-11-12T03:28:24;3.20;99.99
72326;DHT22;60278;47.980;18.780;2022-11-12T03:32:14;3.38;99.99
72326;DHT22;60278;47.980;18.780;2022-11-12T03:36:03;3.34;99.99
72326;DHT22;60278;47.980;18.780;2022-11-12T03:39:53;3.59;99.99
72326;DHT22;60278;47.980;18.780;2022-11-12T03:43:42;3.65;99.99
72326;DHT22;60278;47.980;18.780;2022-11-12T03:47:32;3.46;99.99
72326;DHT22;60278;47.980;18.780;2022-11-12T03:51:21;3.55;99.99
72326;DHT22;60278;47.980;18.780;2022-11-12T03:55:11;3.55;99.99
72326;DHT22;60278;47.980;18.780;2022-11-12T03:59:00;3.54;99.99
72326;DHT22;60278;47.980;18.780;2022-11-12T04:02:50;3.46;99.99
72326;DHT22;60278;47.980;18.780;2022-11-12T04:06:39;3.55;99.99
72326;DHT22;60278;47.980;18.780;2022-11-12T04:10:48;3.51;99.99
72326;DHT22;60278;47.980;18.780;2022-11-12T04:14:37;3.35;99.99
72326;DHT22;60278;47.980;18.780;2022-11-12T04:18:26;3.72;99.99
72326;DHT22;60278;47.980;18.780;2022-11-12T04:22:35;3.65;99.99
72326;DHT22;60278;47.980;18.780;2022-11-12T04:26:24;3.49;99.99
72326;DHT22;60278;47.980;18.780;2022-11-12T04:30:14;3.49;99.99
72326;DHT22;60278;47.980;18.780;2022-11-12T04:34:07;3.69;99.99
72326;DHT22;60278;47.980;18.780;2022-11-12T04:38:15;3.68;99.99
72326;DHT22;60278;47.980;18.780;2022-11-12T04:42:06;3.72;99.99
72326;DHT22;60278;47.980;18.780;2022-11-12T04:46:15;3.62;99.99
72326;DHT22;60278;47.980;18.780;2022-11-12T04:50:14;3.82;99.99
72326;DHT22;60278;47.980;18.780;2022-11-12T04:54:03;3.96;99.99
72326;DHT22;60278;47.980;18.780;2022-11-12T04:57:53;4.06;99.99
72326;DHT22;60278;47.980;18.780;2022-11-12T05:01:42;4.04;99.99
72326;DHT22;60278;47.980;18.780;2022-11-12T05:05:32;3.80;99.99
72326;DHT22;60278;47.980;18.780;2022-11-12T05:09:24;4.01;99.99
72326;DHT22;60278;47.980;18.780;2022-11-12T05:13:14;3.83;99.99
72326;DHT22;60278;47.980;18.780;2022-11-12T05:17:04;4.01;99.99
72326;DHT22;60278;47.980;18.780;2022-11-12T05:20:54;3.87;99.99
72326;DHT22;60278;47.980;18.780;2022-11-12T05:24:44;3.99;99.99
72326;DHT22;60278;47.980;18.780;2022-11-12T05:28:33;4.03;99.99
72326;DHT22;60278;47.980;18.780;2022-11-12T05:32:22;3.91;99.99
72326;DHT22;60278;47.980;18.780;2022-11-12T05:36:12;3.99;99.99
72326;DHT22;60278;47.980;18.780;2022-11-12T05:40:02;4.17;99.99
72326;DHT22;60278;47.980;18.780;2022-11-12T05:43:52;4.31;99.99
72326;DHT22;60278;47.980;18.780;2022-11-12T05:47:41;4.31;99.99
72326;DHT22;60278;47.980;18.780;2022-11-12T05:51:31;4.28;99.99
72326;DHT22;60278;47.980;18.780;2022-11-12T05:55:21;4.42;99.99
72326;DHT22;60278;47.980;18.780;2022-11-12T05:59:12;4.40;99.99
72326;DHT22;60278;47.980;18.780;2022-11-12T06:03:02;4.40;99.99
72326;DHT22;60278;47.980;18.780;2022-11-12T06:06:51;4.57;99.99
72326;DHT22;60278;47.980;18.780;2022-11-12T06:10:40;4.65;99.99
72326;DHT22;60278;47.980;18.780;2022-11-12T06:14:30;4.89;99.99
72326;DHT22;60278;47.980;18.780;2022-11-12T06:18:20;4.69;99.99
72326;DHT22;60278;47.980;18.780;2022-11-12T06:22:09;4.83;99.99
72326;DHT22;60278;47.980;18.780;2022-11-12T06:25:59;4.75;99.99
72326;DHT22;60278;47.980;18.780;2022-11-12T06:29:48;4.72;99.79
72326;DHT22;60278;47.980;18.780;2022-11-12T06:33:38;4.71;99.99
72326;DHT22;60278;47.980;18.780;2022-11-12T06:37:27;4.88;99.99
72326;DHT22;60278;47.980;18.780;2022-11-12T06:41:16;4.89;99.99
72326;DHT22;60278;47.980;18.780;2022-11-12T06:45:06;4.93;99.99
72326;DHT22;60278;47.980;18.780;2022-11-12T06:48:56;4.78;99.99
72326;DHT22;60278;47.980;18.780;2022-11-12T06:52:45;4.78;99.99
72326;DHT22;60278;47.980;18.780;2022-11-12T06:56:34;4.76;99.99
72326;DHT22;60278;47.980;18.780;2022-11-12T07:00:23;4.83;99.99
72326;DHT22;60278;47.980;18.780;2022-11-12T07:04:13;4.86;99.99
72326;DHT22;60278;47.980;18.780;2022-11-12T07:08:04;4.95;99.99
72326;DHT22;60278;47.980;18.780;2022-11-12T07:11:54;5.05;99.99
72326;DHT22;60278;47.980;18.780;2022-11-12T07:15:43;5.23;99.99
72326;DHT22;60278;47.980;18.780;2022-11-12T07:19:32;5.31;99.99
72326;DHT22;60278;47.980;18.780;2022-11-12T07:23:22;5.02;99.99
72326;DHT22;60278;47.980;18.780;2022-11-12T07:27:11;4.93;99.99
72326;DHT22;60278;47.980;18.780;2022-11-12T07:31:03;5.13;99.99
72326;DHT22;60278;47.980;18.780;2022-11-12T07:34:53;5.37;99.99
72326;DHT22;60278;47.980;18.780;2022-11-12T07:38:43;5.46;99.99
72326;DHT22;60278;47.980;18.780;2022-11-12T07:42:33;5.57;99.99
72326;DHT22;60278;47.980;18.780;2022-11-12T07:46:24;5.65;99.99
72326;DHT22;60278;47.980;18.780;2022-11-12T07:50:14;5.64;99.99
72326;DHT22;60278;47.980;18.780;2022-11-12T07:54:04;5.87;99.99
72326;DHT22;60278;47.980;18.780;2022-11-12T07:57:57;6.02;99.99
72326;DHT22;60278;47.980;18.780;2022-11-12T08:01:47;5.99;99.99
72326;DHT22;60278;47.980;18.780;2022-11-12T08:05:36;6.06;99.99
72326;DHT22;60278;47.980;18.780;2022-11-12T08:09:26;6.23;99.99
72326;DHT22;60278;47.980;18.780;2022-11-12T08:13:16;6.32;99.99
72326;DHT22;60278;47.980;18.780;2022-11-12T08:17:05;6.36;99.99
72326;DHT22;60278;47.980;18.780;2022-11-12T08:20:59;6.34;99.99
72326;DHT22;60278;47.980;18.780;2022-11-12T08:24:49;6.46;99.99
72326;DHT22;60278;47.980;18.780;2022-11-12T08:28:38;6.42;99.99
72326;DHT22;60278;47.980;18.780;2022-11-12T08:32:28;6.22;99.99
72326;DHT22;60278;47.980;18.780;2022-11-12T08:36:17;6.25;99.99
72326;DHT22;60278;47.980;18.780;2022-11-12T08:40:07;6.29;99.99
72326;DHT22;60278;47.980;18.780;2022-11-12T08:43:57;6.26;99.99
72326;DHT22;60278;47.980;18.780;2022-11-12T08:47:48;6.26;99.99
72326;DHT22;60278;47.980;18.780;2022-11-12T08:51:37;6.56;99.99
72326;DHT22;60278;47.980;18.780;2022-11-12T08:55:28;6.67;99.99
72326;DHT22;60278;47.980;18.780;2022-11-12T08:59:18;6.85;99.99
72326;DHT22;60278;47.980;18.780;2022-11-12T09:03:12;7.05;99.99
72326;DHT22;60278;47.980;18.780;2022-11-12T09:07:02;6.92;99.99
72326;DHT22;60278;47.980;18.780;2022-11-12T09:10:52;7.07;99.99
72326;DHT22;60278;47.980;18.780;2022-11-12T09:14:42;7.09;99.99
72326;DHT22;60278;47.980;18.780;2022-11-12T09:18:33;7.18;99.99
72326;DHT22;60278;47.980;18.780;2022-11-12T09:22:23;7.35;99.99
72326;DHT22;60278;47.980;18.780;2022-11-12T09:26:12;7.22;99.99
72326;DHT22;60278;47.980;18.780;2022-11-12T09:30:02;7.25;99.99
72326;DHT22;60278;47.980;18.780;2022-11-12T09:33:52;7.22;99.99
72326;DHT22;60278;47.980;18.780;2022-11-12T09:37:42;7.38;99.99
72326;DHT22;60278;47.980;18.780;2022-11-12T09:41:35;7.49;99.99
72326;DHT22;60278;47.980;18.780;2022-11-12T09:45:29;7.80;99.99
72326;DHT22;60278;47.980;18.780;2022-11-12T09:49:33;7.74;99.99
72326;DHT22;60278;47.980;18.780;2022-11-12T09:57:39;8.18;99.99
72326;DHT22;60278;47.980;18.780;2022-11-12T10:01:39;8.35;99.99
72326;DHT22;60278;47.980;18.780;2022-11-12T10:05:41;8.17;99.99
72326;DHT22;60278;47.980;18.780;2022-11-12T10:09:56;8.40;99.99
72326;DHT22;60278;47.980;18.780;2022-11-12T10:26:24;8.45;99.99
72326;DHT22;60278;47.980;18.780;2022-11-12T10:30:16;8.45;99.99
72326;DHT22;60278;47.980;18.780;2022-11-12T10:38:05;8.46;99.99
72326;DHT22;60278;47.980;18.780;2022-11-12T10:46:12;8.52;99.99
72326;DHT22;60278;47.980;18.780;2022-11-12T10:58:16;8.94;99.67
72326;DHT22;60278;47.980;18.780;2022-11-12T11:02:16;9.21;99.31
72326;DHT22;60278;47.980;18.780;2022-11-12T11:06:26;9.19;99.99
72326;DHT22;60278;47.980;18.780;2022-11-12T11:10:26;9.31;98.88
72326;DHT22;60278;47.980;18.780;2022-11-12T11:18:13;9.62;98.12
72326;DHT22;60278;47.980;18.780;2022-11-12T11:22:13;9.89;98.23
72326;DHT22;60278;47.980;18.780;2022-11-12T11:30:20;10.42;96.35
72326;DHT22;60278;47.980;18.780;2022-11-12T11:34:28;10.39;95.85
72326;DHT22;60278;47.980;18.780;2022-11-12T11:46:37;11.42;92.47
72326;DHT22;60278;47.980;18.780;2022-11-12T11:50:33;11.05;92.90
72326;DHT22;60278;47.980;18.780;2022-11-12T12:11:30;12.45;89.69
72326;DHT22;60278;47.980;18.780;2022-11-12T12:15:26;11.82;90.78
72326;DHT22;60278;47.980;18.780;2022-11-12T12:23:32;11.59;93.17
72326;DHT22;60278;47.980;18.780;2022-11-12T12:27:31;11.07;93.83
72326;DHT22;60278;47.980;18.780;2022-11-12T12:31:32;11.04;94.85
72326;DHT22;60278;47.980;18.780;2022-11-12T12:35:33;11.60;93.16
72326;DHT22;60278;47.980;18.780;2022-11-12T12:39:28;11.55;93.62
72326;DHT22;60278;47.980;18.780;2022-11-12T12:47:20;11.26;93.92
72326;DHT22;60278;47.980;18.780;2022-11-12T12:51:10;11.04;93.56
72326;DHT22;60278;47.980;18.780;2022-11-12T12:55:00;10.88;95.25
72326;DHT22;60278;47.980;18.780;2022-11-12T12:58:50;10.88;94.77
72326;DHT22;60278;47.980;18.780;2022-11-12T13:02:40;10.92;95.14
72326;DHT22;60278;47.980;18.780;2022-11-12T13:34:30;10.53;96.40
72326;DHT22;60278;47.980;18.780;2022-11-12T13:38:20;10.59;96.72
72326;DHT22;60278;47.980;18.780;2022-11-12T13:42:16;10.63;96.30
72326;DHT22;60278;47.980;18.780;2022-11-12T13:46:30;10.65;96.26
72326;DHT22;60278;47.980;18.780;2022-11-12T13:50:22;10.70;96.50
72326;DHT22;60278;47.980;18.780;2022-11-12T13:54:34;10.60;96.64
72326;DHT22;60278;47.980;18.780;2022-11-12T13:58:32;10.60;96.75
72326;DHT22;60278;47.980;18.780;2022-11-12T14:02:25;10.60;96.48
72326;DHT22;60278;47.980;18.780;2022-11-12T14:06:26;10.60;96.16
72326;DHT22;60278;47.980;18.780;2022-11-12T14:22:54;10.24;97.99
72326;DHT22;60278;47.980;18.780;2022-11-12T14:26:44;10.13;98.26
72326;DHT22;60278;47.980;18.780;2022-11-12T14:30:33;10.10;98.28
72326;DHT22;60278;47.980;18.780;2022-11-12T14:34:32;9.99;98.57
72326;DHT22;60278;47.980;18.780;2022-11-12T14:38:54;9.83;99.49
72326;DHT22;60278;47.980;18.780;2022-11-12T14:42:45;9.85;99.24
72326;DHT22;60278;47.980;18.780;2022-11-12T14:46:38;9.67;99.70
72326;DHT22;60278;47.980;18.780;2022-11-12T14:50:33;9.58;99.99
72326;DHT22;60278;47.980;18.780;2022-11-12T14:54:35;9.50;99.90
72326;DHT22;60278;47.980;18.780;2022-11-12T14:58:26;9.43;99.99
72326;DHT22;60278;47.980;18.780;2022-11-12T15:02:37;9.30;99.99
72326;DHT22;60278;47.980;18.780;2022-11-12T15:06:28;9.21;99.99
72326;DHT22;60278;47.980;18.780;2022-11-12T15:10:39;9.03;99.99
72326;DHT22;60278;47.980;18.780;2022-11-12T15:14:30;9.00;99.99
72326;DHT22;60278;47.980;18.780;2022-11-12T15:18:23;8.93;99.99
72326;DHT22;60278;47.980;18.780;2022-11-12T15:22:19;8.73;99.99
72326;DHT22;60278;47.980;18.780;2022-11-12T15:26:12;8.76;99.99
72326;DHT22;60278;47.980;18.780;2022-11-12T15:30:15;8.83;99.99
72326;DHT22;60278;47.980;18.780;2022-11-12T15:34:28;8.71;99.99
72326;DHT22;60278;47.980;18.780;2022-11-12T15:42:26;8.41;99.99
72326;DHT22;60278;47.980;18.780;2022-11-12T15:46:16;8.24;99.99
72326;DHT22;60278;47.980;18.780;2022-11-12T15:50:16;8.22;99.99
72326;DHT22;60278;47.980;18.780;2022-11-12T15:54:06;8.08;99.99
72326;DHT22;60278;47.980;18.780;2022-11-12T15:57:55;8.22;99.99
72326;DHT22;60278;47.980;18.780;2022-11-12T16:01:45;7.90;99.99
72326;DHT22;60278;47.980;18.780;2022-11-12T16:05:34;8.00;99.99
72326;DHT22;60278;47.980;18.780;2022-11-12T16:09:23;7.91;99.99
72326;DHT22;60278;47.980;18.780;2022-11-12T16:13:33;7.94;99.99
72326;DHT22;60278;47.980;18.780;2022-11-12T16:17:24;7.74;99.99
72326;DHT22;60278;47.980;18.780;2022-11-12T16:21:13;7.66;99.99
72326;DHT22;60278;47.980;18.780;2022-11-12T16:25:03;7.72;99.99
72326;DHT22;60278;47.980;18.780;2022-11-12T16:28:53;7.55;99.99
72326;DHT22;60278;47.980;18.780;2022-11-12T16:32:43;7.53;99.99
72326;DHT22;60278;47.980;18.780;2022-11-12T16:36:33;7.45;99.99
72326;DHT22;60278;47.980;18.780;2022-11-12T16:40:25;7.29;99.99
72326;DHT22;60278;47.980;18.780;2022-11-12T16:44:14;7.18;99.99
72326;DHT22;60278;47.980;18.780;2022-11-12T16:48:17;7.15;99.99
72326;DHT22;60278;47.980;18.780;2022-11-12T16:52:08;7.19;99.99
72326;DHT22;60278;47.980;18.780;2022-11-12T16:55:58;7.31;99.99
72326;DHT22;60278;47.980;18.780;2022-11-12T16:59:47;7.16;99.99
72326;DHT22;60278;47.980;18.780;2022-11-12T17:03:36;7.11;99.99
72326;DHT22;60278;47.980;18.780;2022-11-12T17:07:26;7.02;99.99
72326;DHT22;60278;47.980;18.780;2022-11-12T17:11:15;7.09;99.99
72326;DHT22;60278;47.980;18.780;2022-11-12T17:15:06;7.04;99.99
72326;DHT22;60278;47.980;18.780;2022-11-12T17:18:57;7.00;99.99
72326;DHT22;60278;47.980;18.780;2022-11-12T17:22:47;6.95;99.99
72326;DHT22;60278;47.980;18.780;2022-11-12T17:26:36;6.97;99.99
72326;DHT22;60278;47.980;18.780;2022-11-12T17:30:26;6.83;99.99
72326;DHT22;60278;47.980;18.780;2022-11-12T17:34:15;6.67;99.99
72326;DHT22;60278;47.980;18.780;2022-11-12T17:38:05;6.58;99.99
72326;DHT22;60278;47.980;18.780;2022-11-12T17:41:54;6.50;99.99
72326;DHT22;60278;47.980;18.780;2022-11-12T17:45:49;6.34;99.99
72326;DHT22;60278;47.980;18.780;2022-11-12T17:49:38;6.11;99.99
72326;DHT22;60278;47.980;18.780;2022-11-12T17:53:28;6.08;99.99
72326;DHT22;60278;47.980;18.780;2022-11-12T17:57:18;6.05;99.99
72326;DHT22;60278;47.980;18.780;2022-11-12T18:04:56;5.48;99.99
72326;DHT22;60278;47.980;18.780;2022-11-12T18:08:50;5.43;99.99
72326;DHT22;60278;47.980;18.780;2022-11-12T18:12:40;5.64;99.99
72326;DHT22;60278;47.980;18.780;2022-11-12T18:16:29;5.51;99.99
72326;DHT22;60278;47.980;18.780;2022-11-12T18:20:19;5.44;99.99
72326;DHT22;60278;47.980;18.780;2022-11-12T18:24:13;5.40;99.99
72326;DHT22;60278;47.980;18.780;2022-11-12T18:28:04;5.41;99.99
72326;DHT22;60278;47.980;18.780;2022-11-12T18:31:54;5.47;99.99
72326;DHT22;60278;47.980;18.780;2022-11-12T18:35:43;5.62;99.99
72326;DHT22;60278;47.980;18.780;2022-11-12T18:39:33;5.65;99.99
72326;DHT22;60278;47.980;18.780;2022-11-12T18:43:22;5.60;99.99
72326;DHT22;60278;47.980;18.780;2022-11-12T18:47:11;5.70;99.99
72326;DHT22;60278;47.980;18.780;2022-11-12T18:51:07;5.72;99.99
72326;DHT22;60278;47.980;18.780;2022-11-12T18:54:57;5.78;99.99
72326;DHT22;60278;47.980;18.780;2022-11-12T18:58:46;5.79;99.99
72326;DHT22;60278;47.980;18.780;2022-11-12T19:02:36;5.65;99.99
72326;DHT22;60278;47.980;18.780;2022-11-12T19:06:25;5.71;99.99
72326;DHT22;60278;47.980;18.780;2022-11-12T19:10:15;5.87;99.99
72326;DHT22;60278;47.980;18.780;2022-11-12T19:14:05;5.90;99.99
72326;DHT22;60278;47.980;18.780;2022-11-12T19:17:54;6.15;99.99
72326;DHT22;60278;47.980;18.780;2022-11-12T19:21:43;5.87;99.99
72326;DHT22;60278;47.980;18.780;2022-11-12T19:25:33;5.79;99.99
72326;DHT22;60278;47.980;18.780;2022-11-12T19:29:24;5.78;99.99
72326;DHT22;60278;47.980;18.780;2022-11-12T19:33:13;5.75;99.99
72326;DHT22;60278;47.980;18.780;2022-11-12T19:37:02;5.64;99.99
72326;DHT22;60278;47.980;18.780;2022-11-12T19:40:52;5.61;99.99
72326;DHT22;60278;47.980;18.780;2022-11-12T19:44:42;5.54;99.99
72326;DHT22;60278;47.980;18.780;2022-11-12T19:48:31;5.27;99.99
72326;DHT22;60278;47.980;18.780;2022-11-12T19:52:21;5.27;99.99
72326;DHT22;60278;47.980;18.780;2022-11-12T19:56:12;5.44;99.99
72326;DHT22;60278;47.980;18.780;2022-11-12T20:00:02;5.57;99.99
72326;DHT22;60278;47.980;18.780;2022-11-12T20:03:52;5.34;99.99
72326;DHT22;60278;47.980;18.780;2022-11-12T20:07:41;5.30;99.99
72326;DHT22;60278;47.980;18.780;2022-11-12T20:11:31;5.34;99.99
72326;DHT22;60278;47.980;18.780;2022-11-12T20:15:20;5.29;99.99
72326;DHT22;60278;47.980;18.780;2022-11-12T20:19:10;5.06;99.99
72326;DHT22;60278;47.980;18.780;2022-11-12T20:23:00;5.08;99.99
72326;DHT22;60278;47.980;18.780;2022-11-12T20:26:49;4.90;99.99
72326;DHT22;60278;47.980;18.780;2022-11-12T20:30:39;4.62;99.99
72326;DHT22;60278;47.980;18.780;2022-11-12T20:34:28;4.55;99.99
72326;DHT22;60278;47.980;18.780;2022-11-12T20:38:18;4.58;99.99
72326;DHT22;60278;47.980;18.780;2022-11-12T20:42:07;4.40;99.99
72326;DHT22;60278;47.980;18.780;2022-11-12T20:45:56;4.41;99.99
72326;DHT22;60278;47.980;18.780;2022-11-12T20:49:46;4.51;99.99
72326;DHT22;60278;47.980;18.780;2022-11-12T20:53:35;4.51;99.99
72326;DHT22;60278;47.980;18.780;2022-11-12T20:57:25;4.44;99.99
72326;DHT22;60278;47.980;18.780;2022-11-12T21:01:16;4.55;99.99
72326;DHT22;60278;47.980;18.780;2022-11-12T21:05:06;4.50;99.99
72326;DHT22;60278;47.980;18.780;2022-11-12T21:08:57;4.52;99.99
72326;DHT22;60278;47.980;18.780;2022-11-12T21:12:48;4.65;99.99
72326;DHT22;60278;47.980;18.780;2022-11-12T21:16:37;4.55;99.99
72326;DHT22;60278;47.980;18.780;2022-11-12T21:20:26;4.54;99.99
72326;DHT22;60278;47.980;18.780;2022-11-12T21:24:16;4.58;99.99
72326;DHT22;60278;47.980;18.780;2022-11-12T21:28:05;4.67;99.99
72326;DHT22;60278;47.980;18.780;2022-11-12T21:31:55;4.69;99.99
72326;DHT22;60278;47.980;18.780;2022-11-12T21:35:50;4.79;99.99
72326;DHT22;60278;47.980;18.780;2022-11-12T21:39:41;4.95;99.99
72326;DHT22;60278;47.980;18.780;2022-11-12T21:43:33;5.05;99.99
72326;DHT22;60278;47.980;18.780;2022-11-12T21:47:23;4.93;99.99
72326;DHT22;60278;47.980;18.780;2022-11-12T21:51:14;4.92;99.99
72326;DHT22;60278;47.980;18.780;2022-11-12T21:55:05;4.65;99.99
72326;DHT22;60278;47.980;18.780;2022-11-12T21:58:56;4.79;99.99
72326;DHT22;60278;47.980;18.780;2022-11-12T22:02:48;4.50;99.99
72326;DHT22;60278;47.980;18.780;2022-11-12T22:06:38;4.62;99.99
72326;DHT22;60278;47.980;18.780;2022-11-12T22:10:29;4.55;99.99
72326;DHT22;60278;47.980;18.780;2022-11-12T22:14:18;4.44;99.99
72326;DHT22;60278;47.980;18.780;2022-11-12T22:18:07;4.38;99.99
72326;DHT22;60278;47.980;18.780;2022-11-12T22:21:57;4.42;99.99
72326;DHT22;60278;47.980;18.780;2022-11-12T22:25:46;4.41;99.99
72326;DHT22;60278;47.980;18.780;2022-11-12T22:29:36;4.52;99.99
72326;DHT22;60278;47.980;18.780;2022-11-12T22:33:25;4.42;99.99
72326;DHT22;60278;47.980;18.780;2022-11-12T22:37:15;4.28;99.99
72326;DHT22;60278;47.980;18.780;2022-11-12T22:41:18;4.45;99.99
72326;DHT22;60278;47.980;18.780;2022-11-12T22:45:08;4.42;99.99
72326;DHT22;60278;47.980;18.780;2022-11-12T22:48:59;4.16;99.99
72326;DHT22;60278;47.980;18.780;2022-11-12T22:52:49;4.41;99.99
72326;DHT22;60278;47.980;18.780;2022-11-12T22:56:38;4.20;99.99
72326;DHT22;60278;47.980;18.780;2022-11-12T23:00:30;4.37;99.99
72326;DHT22;60278;47.980;18.780;2022-11-12T23:04:20;4.40;99.99
72326;DHT22;60278;47.980;18.780;2022-11-12T23:08:09;4.30;99.99
72326;DHT22;60278;47.980;18.780;2022-11-12T23:11:58;4.47;99.99
72326;DHT22;60278;47.980;18.780;2022-11-12T23:15:48;4.54;99.99
72326;DHT22;60278;47.980;18.780;2022-11-12T23:19:38;4.54;99.99
72326;DHT22;60278;47.980;18.780;2022-11-12T23:23:27;4.44;99.99
72326;DHT22;60278;47.980;18.780;2022-11-12T23:27:16;4.57;99.99
72326;DHT22;60278;47.980;18.780;2022-11-12T23:31:19;4.51;99.99
72326;DHT22;60278;47.980;18.780;2022-11-12T23:35:09;4.61;99.99
72326;DHT22;60278;47.980;18.780;2022-11-12T23:38:58;4.50;99.99
72326;DHT22;60278;47.980;18.780;2022-11-12T23:42:49;4.64;99.99
72326;DHT22;60278;47.980;18.780;2022-11-12T23:46:39;4.58;99.99
72326;DHT22;60278;47.980;18.780;2022-11-12T23:50:29;4.68;99.99
72326;DHT22;60278;47.980;18.780;2022-11-12T23:54:18;4.81;99.99
72326;DHT22;60278;47.980;18.780;2022-11-12T23:58:07;4.67;99.99
